createdAt,value
2019-02-09T00:00:18.348Z,99.99
2019-02-09T00:01:18.339Z,99.99
2019-02-09T00:02:18.317Z,99.99
2019-02-09T00:03:18.324Z,99.99
2019-02-09T00:04:18.269Z,99.99
2019-02-09T00:05:18.268Z,99.99
2019-02-09T00:06:18.220Z,99.99
2019-02-09T00:07:18.190Z,99.99
2019-02-09T00:08:18.162Z,99.99
2019-02-09T00:09:18.145Z,99.99
2019-02-09T00:10:18.119Z,99.99
2019-02-09T00:11:18.093Z,99.99
2019-02-09T00:12:18.075Z,99.99
2019-02-09T00:13:18.071Z,99.99
2019-02-09T00:14:18.032Z,99.99
2019-02-09T00:15:18.056Z,99.99
2019-02-09T00:16:18.006Z,99.99
2019-02-09T00:17:17.980Z,99.99
2019-02-09T00:18:17.965Z,99.99
2019-02-09T00:19:17.931Z,99.99
2019-02-09T00:20:17.900Z,99.99
2019-02-09T00:21:17.871Z,99.99
2019-02-09T00:22:17.850Z,99.99
2019-02-09T00:23:17.841Z,99.99
2019-02-09T00:24:17.801Z,99.99
2019-02-09T00:25:17.784Z,99.99
2019-02-09T00:26:17.749Z,99.99
2019-02-09T00:27:17.741Z,99.99
2019-02-09T00:28:17.704Z,99.99
2019-02-09T00:29:17.694Z,99.99
2019-02-09T00:30:17.661Z,99.99
2019-02-09T00:31:17.636Z,99.99
2019-02-09T00:32:17.625Z,99.99
2019-02-09T00:33:17.607Z,99.99
2019-02-09T00:34:17.596Z,99.99
2019-02-09T00:35:17.567Z,99.99
2019-02-09T00:36:17.524Z,99.99
2019-02-09T00:37:17.509Z,99.99
2019-02-09T00:38:17.484Z,99.99
2019-02-09T00:39:17.468Z,99.99
2019-02-09T00:40:17.439Z,99.99
2019-02-09T00:41:17.401Z,99.99
2019-02-09T00:42:17.390Z,99.99
2019-02-09T00:43:17.356Z,99.99
2019-02-09T00:44:17.334Z,99.99
2019-02-09T00:45:17.312Z,99.99
2019-02-09T00:46:17.296Z,99.99
2019-02-09T00:47:17.262Z,99.99
2019-02-09T00:48:17.241Z,99.99
2019-02-09T00:49:17.237Z,99.99
2019-02-09T00:50:17.221Z,99.99
2019-02-09T00:51:17.184Z,99.99
2019-02-09T00:52:17.161Z,99.99
2019-02-09T00:53:17.132Z,99.99
2019-02-09T00:54:17.121Z,99.99
2019-02-09T00:55:17.080Z,99.99
2019-02-09T00:56:17.067Z,99.99
2019-02-09T00:57:17.040Z,99.99
2019-02-09T00:58:17.011Z,99.99
2019-02-09T00:59:17.059Z,99.99
2019-02-09T01:00:16.965Z,99.99
2019-02-09T01:01:16.945Z,99.99
2019-02-09T01:02:16.916Z,99.99
2019-02-09T01:03:16.909Z,99.99
2019-02-09T01:04:16.927Z,99.99
2019-02-09T01:05:16.858Z,99.99
2019-02-09T01:06:16.831Z,99.99
2019-02-09T01:07:16.810Z,99.99
2019-02-09T01:08:16.794Z,99.99
2019-02-09T01:09:16.760Z,99.99
2019-02-09T01:10:16.737Z,99.99
2019-02-09T01:11:16.714Z,99.99
2019-02-09T01:12:16.686Z,99.99
2019-02-09T01:13:16.694Z,99.99
2019-02-09T01:14:16.650Z,99.99
2019-02-09T01:15:16.621Z,99.99
2019-02-09T01:16:16.621Z,99.99
2019-02-09T01:17:16.578Z,99.99
2019-02-09T01:18:16.549Z,99.99
2019-02-09T01:19:16.523Z,99.99
2019-02-09T01:20:16.498Z,99.99
2019-02-09T01:21:16.498Z,99.99
2019-02-09T01:22:16.467Z,99.99
2019-02-09T01:23:16.454Z,99.99
2019-02-09T01:24:16.414Z,99.99
2019-02-09T01:25:16.384Z,99.99
2019-02-09T01:26:16.384Z,99.99
2019-02-09T01:27:16.346Z,99.99
2019-02-09T01:28:16.316Z,99.99
2019-02-09T01:29:16.309Z,99.99
2019-02-09T01:30:16.271Z,99.99
2019-02-09T01:31:16.576Z,99.99
2019-02-09T01:32:16.223Z,99.99
2019-02-09T01:33:16.205Z,99.99
2019-02-09T01:34:16.182Z,99.99
2019-02-09T01:35:16.174Z,99.99
2019-02-09T01:36:16.207Z,99.99
2019-02-09T01:37:16.110Z,99.99
2019-02-09T01:38:16.085Z,99.99
2019-02-09T01:39:16.733Z,99.99
2019-02-09T01:40:16.044Z,99.99
2019-02-09T01:41:16.030Z,99.99
2019-02-09T01:42:15.988Z,99.99
2019-02-09T01:43:16.378Z,99.99
2019-02-09T01:44:15.996Z,99.99
2019-02-09T01:45:15.929Z,99.99
2019-02-09T01:46:15.926Z,99.99
2019-02-09T01:47:15.931Z,99.99
2019-02-09T01:48:15.875Z,99.99
2019-02-09T01:49:15.860Z,99.99
2019-02-09T01:50:15.866Z,99.99
2019-02-09T01:51:15.782Z,99.99
2019-02-09T01:52:15.758Z,99.99
2019-02-09T01:53:15.760Z,99.99
2019-02-09T01:54:15.724Z,99.99
2019-02-09T01:55:15.702Z,99.99
2019-02-09T01:56:15.682Z,99.99
2019-02-09T01:57:15.643Z,99.99
2019-02-09T01:58:15.634Z,99.99
2019-02-09T01:59:15.604Z,99.99
2019-02-09T02:00:15.624Z,99.99
2019-02-09T02:01:15.569Z,99.99
2019-02-09T02:02:15.526Z,99.99
2019-02-09T02:03:15.510Z,99.99
2019-02-09T02:04:15.498Z,99.99
2019-02-09T02:05:15.491Z,99.99
2019-02-09T02:06:15.431Z,99.99
2019-02-09T02:07:15.441Z,99.99
2019-02-09T02:08:15.408Z,99.99
2019-02-09T02:09:15.391Z,99.99
2019-02-09T02:10:15.347Z,99.99
2019-02-09T02:11:15.334Z,99.99
2019-02-09T02:12:15.309Z,99.99
2019-02-09T02:16:19.453Z,99.99
2019-02-09T02:17:19.423Z,99.99
2019-02-09T02:19:14.777Z,99.99
2019-02-09T02:20:14.763Z,99.99
2019-02-09T02:21:14.720Z,99.99
2019-02-09T02:22:14.704Z,99.99
2019-02-09T02:23:14.675Z,99.99
2019-02-09T02:24:14.650Z,99.99
2019-02-09T02:25:14.623Z,99.99
2019-02-09T02:26:14.603Z,99.99
2019-02-09T02:27:14.587Z,99.99
2019-02-09T02:28:14.575Z,99.99
2019-02-09T02:29:14.534Z,99.99
2019-02-09T02:30:22.158Z,99.99
2019-02-09T02:31:14.540Z,99.99
2019-02-09T02:32:14.474Z,99.99
2019-02-09T02:33:14.449Z,99.99
2019-02-09T02:34:14.420Z,99.99
2019-02-09T02:35:14.402Z,99.99
2019-02-09T02:36:14.379Z,99.99
2019-02-09T02:37:14.359Z,99.99
2019-02-09T02:38:14.325Z,99.99
2019-02-09T02:39:14.297Z,99.99
2019-02-09T02:40:14.290Z,99.99
2019-02-09T02:41:14.253Z,99.99
2019-02-09T02:42:14.250Z,99.99
2019-02-09T02:43:14.222Z,99.99
2019-02-09T02:44:14.205Z,99.99
2019-02-09T02:45:14.163Z,99.99
2019-02-09T02:46:14.165Z,99.99
2019-02-09T02:47:14.132Z,99.99
2019-02-09T02:48:14.133Z,99.99
2019-02-09T02:49:14.075Z,99.99
2019-02-09T02:50:14.050Z,99.99
2019-02-09T02:51:14.043Z,99.99
2019-02-09T02:52:14.009Z,99.99
2019-02-09T02:53:13.986Z,99.99
2019-02-09T02:54:13.954Z,99.99
2019-02-09T02:55:13.932Z,99.99
2019-02-09T02:56:13.902Z,99.99
2019-02-09T02:57:13.898Z,99.99
2019-02-09T02:58:13.862Z,99.99
2019-02-09T02:59:13.835Z,99.99
2019-02-09T03:00:13.812Z,99.99
2019-02-09T03:01:13.794Z,99.99
2019-02-09T03:02:13.806Z,99.99
2019-02-09T03:03:13.751Z,99.99
2019-02-09T03:04:13.744Z,99.99
2019-02-09T03:05:13.746Z,99.99
2019-02-09T03:06:13.665Z,99.99
2019-02-09T03:07:13.663Z,99.99
2019-02-09T03:08:13.618Z,99.99
2019-02-09T03:09:13.594Z,99.99
2019-02-09T03:10:13.587Z,99.99
2019-02-09T03:11:13.571Z,99.99
2019-02-09T03:12:13.539Z,99.99
2019-02-09T03:13:13.510Z,99.99
2019-02-09T03:14:13.492Z,99.99
2019-02-09T03:15:13.454Z,99.99
2019-02-09T03:16:13.441Z,99.99
2019-02-09T03:17:13.409Z,99.99
2019-02-09T03:18:13.415Z,99.99
2019-02-09T03:19:13.407Z,99.99
2019-02-09T03:20:13.358Z,99.99
2019-02-09T03:21:13.338Z,99.99
2019-02-09T03:22:13.290Z,99.99
2019-02-09T03:23:13.271Z,99.99
2019-02-09T03:24:13.283Z,99.99
2019-02-09T03:25:13.237Z,99.99
2019-02-09T03:26:13.235Z,99.99
2019-02-09T03:27:13.186Z,99.99
2019-02-09T03:28:13.167Z,99.99
2019-02-09T03:29:13.137Z,99.99
2019-02-09T03:30:13.115Z,99.99
2019-02-09T03:31:13.089Z,99.99
2019-02-09T03:32:13.086Z,99.99
2019-02-09T03:33:13.069Z,99.99
2019-02-09T03:34:13.017Z,99.99
2019-02-09T03:35:12.997Z,99.99
2019-02-09T03:36:12.979Z,99.99
2019-02-09T03:37:12.957Z,99.99
2019-02-09T03:38:12.929Z,99.99
2019-02-09T03:39:12.935Z,99.99
2019-02-09T03:40:12.881Z,99.99
2019-02-09T03:41:12.861Z,99.99
2019-02-09T03:42:12.830Z,99.99
2019-02-09T03:43:12.808Z,99.99
2019-02-09T03:44:12.787Z,99.99
2019-02-09T03:45:12.762Z,99.99
2019-02-09T03:46:12.743Z,99.99
2019-02-09T03:47:12.713Z,99.99
2019-02-09T03:48:12.694Z,99.99
2019-02-09T03:49:12.711Z,99.99
2019-02-09T03:50:12.659Z,99.99
2019-02-09T03:51:12.625Z,99.99
2019-02-09T03:52:12.603Z,99.99
2019-02-09T03:53:12.566Z,99.99
2019-02-09T03:54:12.544Z,99.99
2019-02-09T03:55:12.569Z,99.99
2019-02-09T03:56:12.497Z,99.99
2019-02-09T03:57:12.487Z,99.99
2019-02-09T03:58:12.468Z,99.99
2019-02-09T03:59:12.438Z,99.99
2019-02-09T04:00:12.405Z,99.99
2019-02-09T04:01:12.382Z,99.99
2019-02-09T04:02:12.390Z,99.99
2019-02-09T04:03:12.344Z,99.99
2019-02-09T04:04:12.319Z,99.99
2019-02-09T04:05:12.288Z,99.99
2019-02-09T04:06:12.280Z,99.99
2019-02-09T04:07:12.244Z,99.99
2019-02-09T04:08:12.225Z,99.99
2019-02-09T04:09:12.201Z,99.99
2019-02-09T04:10:12.171Z,99.99
2019-02-09T04:11:12.172Z,99.99
2019-02-09T04:12:12.133Z,99.99
2019-02-09T04:13:12.109Z,99.99
2019-02-09T04:14:12.112Z,99.99
2019-02-09T04:15:12.077Z,99.99
2019-02-09T04:16:12.031Z,99.99
2019-02-09T04:17:12.005Z,99.99
2019-02-09T04:18:12.017Z,99.99
2019-02-09T04:19:11.987Z,99.99
2019-02-09T04:20:11.943Z,99.99
2019-02-09T04:21:11.929Z,99.99
2019-02-09T04:22:11.914Z,99.99
2019-02-09T04:23:11.873Z,99.99
2019-02-09T04:24:11.849Z,99.99
2019-02-09T04:25:11.855Z,99.99
2019-02-09T04:26:11.822Z,99.99
2019-02-09T04:27:11.772Z,99.99
2019-02-09T04:28:11.761Z,99.99
2019-02-09T04:29:11.766Z,99.99
2019-02-09T04:30:11.722Z,99.99
2019-02-09T04:31:11.711Z,99.99
2019-02-09T04:32:11.691Z,99.99
2019-02-09T04:33:11.646Z,99.99
2019-02-09T04:34:11.676Z,99.99
2019-02-09T04:35:11.597Z,99.99
2019-02-09T04:36:11.616Z,99.99
2019-02-09T04:37:11.576Z,99.99
2019-02-09T04:38:11.542Z,99.99
2019-02-09T04:39:11.500Z,99.99
2019-02-09T04:40:11.484Z,99.99
2019-02-09T04:41:11.456Z,99.99
2019-02-09T04:42:11.427Z,99.99
2019-02-09T04:43:11.438Z,99.99
2019-02-09T04:44:11.404Z,99.99
2019-02-09T04:45:11.369Z,99.99
2019-02-09T04:46:11.352Z,99.99
2019-02-09T04:47:11.366Z,99.99
2019-02-09T04:48:11.332Z,99.99
2019-02-09T04:49:11.276Z,99.99
2019-02-09T04:50:11.241Z,99.99
2019-02-09T04:51:11.222Z,99.99
2019-02-09T04:52:11.194Z,99.99
2019-02-09T04:53:11.182Z,99.99
2019-02-09T04:54:11.154Z,99.99
2019-02-09T04:55:11.126Z,99.99
2019-02-09T04:56:11.103Z,99.99
2019-02-09T04:57:11.194Z,99.99
2019-02-09T04:58:11.054Z,99.99
2019-02-09T04:59:11.050Z,99.99
2019-02-09T05:00:11.039Z,99.99
2019-02-09T05:01:14.065Z,99.99
2019-02-09T05:02:11.002Z,99.99
2019-02-09T05:03:10.961Z,99.99
2019-02-09T05:04:10.928Z,99.99
2019-02-09T05:05:10.890Z,99.99
2019-02-09T05:06:10.872Z,99.99
2019-02-09T05:07:10.876Z,99.99
2019-02-09T05:08:10.820Z,99.99
2019-02-09T05:09:10.836Z,99.99
2019-02-09T05:10:10.797Z,99.99
2019-02-09T05:11:10.746Z,99.99
2019-02-09T05:12:10.732Z,99.99
2019-02-09T05:13:10.721Z,99.99
2019-02-09T05:14:10.687Z,99.99
2019-02-09T05:15:10.660Z,99.99
2019-02-09T05:16:10.638Z,99.99
2019-02-09T05:17:10.609Z,99.99
2019-02-09T05:18:10.589Z,99.99
2019-02-09T05:19:10.567Z,99.99
2019-02-09T05:20:10.543Z,99.99
2019-02-09T05:21:10.523Z,99.99
2019-02-09T05:22:10.520Z,99.99
2019-02-09T05:23:10.478Z,99.99
2019-02-09T05:24:10.473Z,99.99
2019-02-09T05:25:10.445Z,99.99
2019-02-09T05:26:10.401Z,99.99
2019-02-09T05:27:10.393Z,99.99
2019-02-09T05:28:10.355Z,99.99
2019-02-09T05:29:10.362Z,99.99
2019-02-09T05:30:10.303Z,99.99
2019-02-09T05:31:10.298Z,99.99
2019-02-09T05:32:10.255Z,99.99
2019-02-09T05:33:10.240Z,99.99
2019-02-09T05:34:10.228Z,99.99
2019-02-09T05:35:10.190Z,99.99
2019-02-09T05:36:10.167Z,99.99
2019-02-09T05:37:10.151Z,99.99
2019-02-09T05:38:10.119Z,99.99
2019-02-09T05:39:10.109Z,99.99
2019-02-09T05:40:10.071Z,99.99
2019-02-09T05:41:10.060Z,99.99
2019-02-09T05:42:10.048Z,99.99
2019-02-09T05:43:10.011Z,99.99
2019-02-09T05:44:09.980Z,99.99
2019-02-09T05:45:09.992Z,99.99
2019-02-09T05:46:09.982Z,99.99
2019-02-09T05:47:09.916Z,99.99
2019-02-09T05:48:09.929Z,99.99
2019-02-09T05:49:09.860Z,99.99
2019-02-09T05:50:09.856Z,99.99
2019-02-09T05:51:09.846Z,99.99
2019-02-09T05:52:09.795Z,99.99
2019-02-09T05:53:09.798Z,99.99
2019-02-09T05:54:09.770Z,99.99
2019-02-09T05:55:09.723Z,99.99
2019-02-09T05:56:09.708Z,99.99
2019-02-09T05:57:09.676Z,99.99
2019-02-09T05:58:09.673Z,99.99
2019-02-09T05:59:09.637Z,99.99
2019-02-09T06:00:09.641Z,99.99
2019-02-09T06:01:09.622Z,99.99
2019-02-09T06:02:09.573Z,99.99
2019-02-09T06:03:09.546Z,99.99
2019-02-09T06:04:09.534Z,99.99
2019-02-09T06:05:09.508Z,99.99
2019-02-09T06:06:09.463Z,99.99
2019-02-09T06:07:09.457Z,99.99
2019-02-09T06:08:09.445Z,99.99
2019-02-09T06:09:09.396Z,99.99
2019-02-09T06:10:09.371Z,99.99
2019-02-09T06:11:09.354Z,99.99
2019-02-09T06:12:09.355Z,99.99
2019-02-09T06:13:09.314Z,99.99
2019-02-09T06:14:09.318Z,99.99
2019-02-09T06:15:09.254Z,99.99
2019-02-09T06:16:09.245Z,99.99
2019-02-09T06:17:09.239Z,99.99
2019-02-09T06:18:09.201Z,99.99
2019-02-09T06:19:09.158Z,99.99
2019-02-09T06:20:09.143Z,99.99
2019-02-09T06:21:09.124Z,99.99
2019-02-09T06:22:09.108Z,99.99
2019-02-09T06:23:09.072Z,99.99
2019-02-09T06:24:09.052Z,99.99
2019-02-09T06:25:09.020Z,99.99
2019-02-09T06:26:08.994Z,99.99
2019-02-09T06:27:09.009Z,99.99
2019-02-09T06:28:08.970Z,99.99
2019-02-09T06:29:08.940Z,99.99
2019-02-09T06:30:08.908Z,99.99
2019-02-09T06:31:08.901Z,99.99
2019-02-09T06:32:08.905Z,99.99
2019-02-09T06:33:08.838Z,99.99
2019-02-09T06:34:08.842Z,99.99
2019-02-09T06:35:08.801Z,99.99
2019-02-09T06:36:08.782Z,99.99
2019-02-09T06:37:08.759Z,99.99
2019-02-09T06:38:08.746Z,99.99
2019-02-09T06:39:08.702Z,99.99
2019-02-09T06:40:08.671Z,99.99
2019-02-09T06:41:08.672Z,99.99
2019-02-09T06:42:08.650Z,99.99
2019-02-09T06:43:08.613Z,99.99
2019-02-09T06:44:08.596Z,99.99
2019-02-09T06:45:08.558Z,99.99
2019-02-09T06:46:08.537Z,99.99
2019-02-09T06:47:08.515Z,99.99
2019-02-09T06:48:08.501Z,99.99
2019-02-09T06:49:08.506Z,99.99
2019-02-09T06:50:08.435Z,99.99
2019-02-09T06:51:08.423Z,99.99
2019-02-09T06:52:08.398Z,99.99
2019-02-09T06:53:08.366Z,99.99
2019-02-09T06:54:08.349Z,99.99
2019-02-09T06:55:08.343Z,99.99
2019-02-09T06:56:08.298Z,99.99
2019-02-09T06:57:08.275Z,99.99
2019-02-09T06:58:08.261Z,99.99
2019-02-09T06:59:08.235Z,99.99
2019-02-09T07:00:08.217Z,99.99
2019-02-09T07:01:08.186Z,99.99
2019-02-09T07:02:08.176Z,99.99
2019-02-09T07:03:08.130Z,99.99
2019-02-09T07:04:08.111Z,99.99
2019-02-09T07:05:08.089Z,99.99
2019-02-09T07:06:08.083Z,99.99
2019-02-09T07:07:08.048Z,99.99
2019-02-09T07:08:08.085Z,99.99
2019-02-09T07:09:07.990Z,99.99
2019-02-09T07:10:07.974Z,99.99
2019-02-09T07:11:07.949Z,99.99
2019-02-09T07:12:07.921Z,99.99
2019-02-09T07:13:07.903Z,99.99
2019-02-09T07:14:07.909Z,99.99
2019-02-09T07:15:07.887Z,99.99
2019-02-09T07:16:07.824Z,99.99
2019-02-09T07:17:07.796Z,99.99
2019-02-09T07:18:07.773Z,99.99
2019-02-09T07:19:07.767Z,99.99
2019-02-09T07:20:07.732Z,99.99
2019-02-09T07:21:07.720Z,99.99
2019-02-09T07:22:07.692Z,99.99
2019-02-09T07:23:07.664Z,99.99
2019-02-09T07:24:07.639Z,99.99
2019-02-09T07:25:07.615Z,99.99
2019-02-09T07:26:07.588Z,99.99
2019-02-09T07:27:07.561Z,99.99
2019-02-09T07:28:07.589Z,99.99
2019-02-09T07:29:07.515Z,99.99
2019-02-09T07:30:07.541Z,99.99
2019-02-09T07:31:07.470Z,99.99
2019-02-09T07:32:07.456Z,99.99
2019-02-09T07:33:07.422Z,99.99
2019-02-09T07:34:07.422Z,99.99
2019-02-09T07:35:07.386Z,99.99
2019-02-09T07:36:07.370Z,99.99
2019-02-09T07:37:07.339Z,99.99
2019-02-09T07:38:07.325Z,99.99
2019-02-09T07:39:07.282Z,99.99
2019-02-09T07:40:07.260Z,99.99
2019-02-09T07:41:07.241Z,99.99
2019-02-09T07:42:07.227Z,99.99
2019-02-09T07:43:07.194Z,99.99
2019-02-09T07:44:07.161Z,99.99
2019-02-09T07:45:07.146Z,99.99
2019-02-09T07:46:07.136Z,99.99
2019-02-09T07:47:07.103Z,99.99
2019-02-09T07:48:07.062Z,99.99
2019-02-09T07:49:07.051Z,99.99
2019-02-09T07:50:07.017Z,99.99
2019-02-09T07:51:06.997Z,99.99
2019-02-09T07:52:06.998Z,99.99
2019-02-09T07:53:06.964Z,99.99
2019-02-09T07:54:06.926Z,99.99
2019-02-09T07:55:06.929Z,99.99
2019-02-09T07:56:06.912Z,99.99
2019-02-09T07:57:06.856Z,99.99
2019-02-09T07:58:06.825Z,99.99
2019-02-09T07:59:06.814Z,99.99
2019-02-09T08:00:06.783Z,99.99
2019-02-09T08:01:06.796Z,99.99
2019-02-09T08:02:06.757Z,99.99
2019-02-09T08:03:06.722Z,99.99
2019-02-09T08:04:06.688Z,99.99
2019-02-09T08:05:06.678Z,99.99
2019-02-09T08:06:06.668Z,99.99
2019-02-09T08:07:06.612Z,99.99
2019-02-09T08:08:06.615Z,99.99
2019-02-09T08:09:06.614Z,99.99
2019-02-09T08:10:06.557Z,99.99
2019-02-09T08:11:09.218Z,99.99
2019-02-09T08:12:06.513Z,99.99
2019-02-09T08:13:06.521Z,99.99
2019-02-09T08:14:06.449Z,99.99
2019-02-09T08:15:06.454Z,99.99
2019-02-09T08:16:06.419Z,99.99
2019-02-09T08:17:06.376Z,99.99
2019-02-09T08:18:06.351Z,99.99
2019-02-09T08:19:06.333Z,99.99
2019-02-09T08:20:06.322Z,99.99
2019-02-09T08:21:06.303Z,99.99
2019-02-09T08:22:06.301Z,99.99
2019-02-09T08:23:06.235Z,99.99
2019-02-09T08:24:07.290Z,99.99
2019-02-09T08:25:06.186Z,99.99
2019-02-09T08:26:06.186Z,99.99
2019-02-09T08:27:06.169Z,99.99
2019-02-09T08:28:06.122Z,99.99
2019-02-09T08:29:06.135Z,99.99
2019-02-09T08:30:06.082Z,99.99
2019-02-09T08:31:06.071Z,99.99
2019-02-09T08:32:12.586Z,99.99
2019-02-09T08:33:06.015Z,99.99
2019-02-09T08:34:05.976Z,99.99
2019-02-09T08:35:05.978Z,99.99
2019-02-09T08:36:05.962Z,99.99
2019-02-09T08:37:05.942Z,99.99
2019-02-09T08:38:05.929Z,99.99
2019-02-09T08:39:05.895Z,99.99
2019-02-09T08:40:05.839Z,99.99
2019-02-09T08:41:05.844Z,99.99
2019-02-09T08:42:05.801Z,99.99
2019-02-09T08:43:05.868Z,99.99
2019-02-09T08:44:05.738Z,99.99
2019-02-09T08:45:05.724Z,99.99
2019-02-09T08:46:05.712Z,99.99
2019-02-09T08:47:05.670Z,99.99
2019-02-09T08:48:05.655Z,99.99
2019-02-09T08:49:05.632Z,99.99
2019-02-09T08:50:05.624Z,99.99
2019-02-09T08:51:05.586Z,99.99
2019-02-09T08:52:05.549Z,99.99
2019-02-09T08:53:05.540Z,99.99
2019-02-09T08:54:05.563Z,99.99
2019-02-09T08:55:05.482Z,99.99
2019-02-09T08:56:05.968Z,99.99
2019-02-09T08:57:05.450Z,99.99
2019-02-09T08:58:05.410Z,99.99
2019-02-09T08:59:05.392Z,99.99
2019-02-09T09:00:05.665Z,99.99
2019-02-09T09:01:05.346Z,99.99
2019-02-09T09:02:05.321Z,99.99
2019-02-09T09:03:05.301Z,99.99
2019-02-09T09:04:05.277Z,99.99
2019-02-09T09:05:09.720Z,99.99
2019-02-09T09:06:05.243Z,99.99
2019-02-09T09:07:05.203Z,99.99
2019-02-09T09:08:05.205Z,99.99
2019-02-09T09:09:05.171Z,99.99
2019-02-09T09:10:05.254Z,99.99
2019-02-09T09:11:05.112Z,99.99
2019-02-09T09:12:05.100Z,99.99
2019-02-09T09:13:08.439Z,99.99
2019-02-09T09:14:05.141Z,99.99
2019-02-09T09:15:05.032Z,99.99
2019-02-09T09:16:05.002Z,99.99
2019-02-09T09:17:05.004Z,99.99
2019-02-09T09:18:04.965Z,99.99
2019-02-09T09:19:04.937Z,99.99
2019-02-09T09:20:04.910Z,99.99
2019-02-09T09:21:04.898Z,99.99
2019-02-09T09:22:04.899Z,99.99
2019-02-09T09:23:04.993Z,99.99
2019-02-09T09:24:04.873Z,99.99
2019-02-09T09:25:05.392Z,99.99
2019-02-09T09:26:04.769Z,99.99
2019-02-09T09:27:04.763Z,99.99
2019-02-09T09:28:04.735Z,99.99
2019-02-09T09:29:04.714Z,99.99
2019-02-09T09:30:04.688Z,99.99
2019-02-09T09:31:04.676Z,99.99
2019-02-09T09:32:04.636Z,99.99
2019-02-09T09:33:04.622Z,99.99
2019-02-09T09:34:04.594Z,99.99
2019-02-09T09:35:04.565Z,99.99
2019-02-09T09:36:04.557Z,99.99
2019-02-09T09:37:04.541Z,99.99
2019-02-09T09:38:04.536Z,99.99
2019-02-09T09:39:04.500Z,99.99
2019-02-09T09:40:04.464Z,99.99
2019-02-09T09:41:04.465Z,99.99
2019-02-09T09:42:04.426Z,99.99
2019-02-09T09:43:04.398Z,99.99
2019-02-09T09:44:04.377Z,99.99
2019-02-09T09:45:04.342Z,99.99
2019-02-09T09:46:04.322Z,99.99
2019-02-09T09:47:04.307Z,99.99
2019-02-09T09:48:04.312Z,99.99
2019-02-09T09:49:04.256Z,99.99
2019-02-09T09:50:04.262Z,99.99
2019-02-09T09:51:04.238Z,99.99
2019-02-09T09:52:04.200Z,99.99
2019-02-09T09:53:04.193Z,99.99
2019-02-09T09:54:04.156Z,99.99
2019-02-09T09:55:04.147Z,99.99
2019-02-09T09:56:04.104Z,99.99
2019-02-09T09:57:04.092Z,99.99
2019-02-09T09:58:04.062Z,99.99
2019-02-09T09:59:04.057Z,99.99
2019-02-09T10:00:04.029Z,99.99
2019-02-09T10:01:04.017Z,99.99
2019-02-09T10:02:03.993Z,99.99
2019-02-09T10:03:03.964Z,99.99
2019-02-09T10:04:03.949Z,99.99
2019-02-09T10:05:03.912Z,99.99
2019-02-09T10:06:03.887Z,99.99
2019-02-09T10:07:03.886Z,99.99
2019-02-09T10:08:03.844Z,99.99
2019-02-09T10:09:03.829Z,99.99
2019-02-09T10:10:03.821Z,99.99
2019-02-09T10:11:03.781Z,99.99
2019-02-09T10:12:03.749Z,99.99
2019-02-09T10:13:03.725Z,99.99
2019-02-09T10:14:08.710Z,99.99
2019-02-09T10:15:03.690Z,99.99
2019-02-09T10:16:03.668Z,99.99
2019-02-09T10:17:03.631Z,99.99
2019-02-09T10:18:03.650Z,99.99
2019-02-09T10:19:03.601Z,99.99
2019-02-09T10:20:03.576Z,99.99
2019-02-09T10:21:03.547Z,99.99
2019-02-09T10:22:03.526Z,99.99
2019-02-09T10:23:03.516Z,99.99
2019-02-09T10:24:03.505Z,99.99
2019-02-09T10:25:03.467Z,99.99
2019-02-09T10:26:03.465Z,99.99
2019-02-09T10:27:03.439Z,99.99
2019-02-09T10:28:03.420Z,99.99
2019-02-09T10:29:03.399Z,99.84
2019-02-09T10:30:03.371Z,99.99
2019-02-09T10:31:03.341Z,99.55
2019-02-09T10:32:03.354Z,99.13
2019-02-09T10:33:03.303Z,98.74
2019-02-09T10:34:03.295Z,99.99
2019-02-09T10:35:03.249Z,99.98
2019-02-09T10:36:03.215Z,99.99
2019-02-09T10:37:03.198Z,99.99
2019-02-09T10:38:03.206Z,99.99
2019-02-09T10:39:03.177Z,99.99
2019-02-09T10:40:03.136Z,99.99
2019-02-09T10:41:03.111Z,99.99
2019-02-09T10:42:03.098Z,99.99
2019-02-09T10:43:03.076Z,99.99
2019-02-09T10:44:03.062Z,99.99
2019-02-09T10:45:03.022Z,99.99
2019-02-09T10:46:03.017Z,99.99
2019-02-09T10:47:02.986Z,99.99
2019-02-09T10:48:02.985Z,99.99
2019-02-09T10:49:02.941Z,99.99
2019-02-09T10:50:02.919Z,99.99
2019-02-09T10:51:02.906Z,99.99
2019-02-09T10:52:02.870Z,99.99
2019-02-09T10:53:02.860Z,99.99
2019-02-09T10:54:02.837Z,99.99
2019-02-09T10:55:02.825Z,99.99
2019-02-09T10:56:02.789Z,99.99
2019-02-09T10:57:02.770Z,99.99
2019-02-09T10:58:02.743Z,99.99
2019-02-09T10:59:02.728Z,99.99
2019-02-09T11:00:02.720Z,99.99
2019-02-09T11:01:02.679Z,99.99
2019-02-09T11:02:02.675Z,99.99
2019-02-09T11:03:02.639Z,99.99
2019-02-09T11:04:02.617Z,99.99
2019-02-09T11:05:02.587Z,99.99
2019-02-09T11:06:02.706Z,99.99
2019-02-09T11:07:02.610Z,99.99
2019-02-09T11:08:02.520Z,99.99
2019-02-09T11:09:02.566Z,99.99
2019-02-09T11:10:02.473Z,99.99
2019-02-09T11:11:02.456Z,99.99
2019-02-09T11:12:02.886Z,99.99
2019-02-09T11:13:02.702Z,99.99
2019-02-09T11:14:02.398Z,99.99
2019-02-09T11:15:02.366Z,99.99
2019-02-09T11:16:02.354Z,99.99
2019-02-09T11:17:02.321Z,99.99
2019-02-09T11:18:02.305Z,99.99
2019-02-09T11:19:02.275Z,99.99
2019-02-09T11:20:02.266Z,99.99
2019-02-09T11:21:02.253Z,99.99
2019-02-09T11:22:02.205Z,99.99
2019-02-09T11:23:02.214Z,99.99
2019-02-09T11:24:02.208Z,99.99
2019-02-09T11:25:02.147Z,99.99
2019-02-09T11:26:02.131Z,99.99
2019-02-09T11:27:02.119Z,99.99
2019-02-09T11:28:02.095Z,99.99
2019-02-09T11:29:02.080Z,99.99
2019-02-09T11:30:02.037Z,99.99
2019-02-09T11:31:02.014Z,99.99
2019-02-09T11:32:02.007Z,99.99
2019-02-09T11:33:02.700Z,99.99
2019-02-09T11:34:01.961Z,99.99
2019-02-09T11:35:01.940Z,99.99
2019-02-09T11:36:01.913Z,99.99
2019-02-09T11:37:01.889Z,99.99
2019-02-09T11:38:01.868Z,99.99
2019-02-09T11:39:01.871Z,99.99
2019-02-09T11:40:01.845Z,99.99
2019-02-09T11:41:01.797Z,99.99
2019-02-09T11:42:01.779Z,99.99
2019-02-09T11:43:01.778Z,99.99
2019-02-09T11:44:01.727Z,99.99
2019-02-09T11:45:01.711Z,99.18
2019-02-09T11:46:01.702Z,99.08
2019-02-09T11:47:01.666Z,98.08
2019-02-09T11:48:01.665Z,98.13
2019-02-09T11:49:01.659Z,98.22
2019-02-09T11:50:01.612Z,98.41
2019-02-09T11:51:01.598Z,97.27
2019-02-09T11:52:01.559Z,97.46
2019-02-09T11:53:02.063Z,98.32
2019-02-09T11:54:01.512Z,97.27
2019-02-09T11:55:01.496Z,97.27
2019-02-09T11:56:01.503Z,98.41
2019-02-09T11:57:01.444Z,98.41
2019-02-09T11:58:01.429Z,98.22
2019-02-09T11:59:01.419Z,96.51
2019-02-09T12:00:01.382Z,97.46
2019-02-09T12:01:01.352Z,97.27
2019-02-09T12:02:01.337Z,96.41
2019-02-09T12:03:05.509Z,95.08
2019-02-09T12:04:01.295Z,95.84
2019-02-09T12:05:01.276Z,96.12
2019-02-09T12:06:01.246Z,96.22
2019-02-09T12:07:01.233Z,95.65
2019-02-09T12:08:01.206Z,95.08
2019-02-09T12:09:01.179Z,94.79
2019-02-09T12:10:01.183Z,94.70
2019-02-09T12:11:01.157Z,94.79
2019-02-09T12:12:01.139Z,95.46
2019-02-09T12:13:01.094Z,95.56
2019-02-09T12:14:01.115Z,95.75
2019-02-09T12:15:01.055Z,95.65
2019-02-09T12:16:01.040Z,95.17
2019-02-09T12:17:01.022Z,94.60
2019-02-09T12:18:01.056Z,95.27
2019-02-09T12:19:00.981Z,95.17
2019-02-09T12:20:00.957Z,95.17
2019-02-09T12:21:00.928Z,95.75
2019-02-09T12:22:00.917Z,95.36
2019-02-09T12:23:00.881Z,95.56
2019-02-09T12:24:00.866Z,95.08
2019-02-09T12:25:00.836Z,95.12
2019-02-09T12:26:00.820Z,95.03
2019-02-09T12:27:00.790Z,95.56
2019-02-09T12:28:00.778Z,95.32
2019-02-09T12:29:00.746Z,95.56
2019-02-09T12:30:00.723Z,95.27
2019-02-09T12:31:00.722Z,95.51
2019-02-09T12:32:00.693Z,95.12
2019-02-09T12:33:00.663Z,95.36
2019-02-09T12:34:00.648Z,95.32
2019-02-09T12:35:00.634Z,95.41
2019-02-09T12:36:00.596Z,97.03
2019-02-09T12:37:00.580Z,98.84
2019-02-09T12:38:00.547Z,99.69
2019-02-09T12:39:00.537Z,99.98
2019-02-09T12:40:00.514Z,99.99
2019-02-09T12:41:00.517Z,99.99
2019-02-09T12:42:00.486Z,99.99
2019-02-09T12:43:00.455Z,99.99
2019-02-09T12:44:00.453Z,99.99
2019-02-09T12:45:00.400Z,99.99
2019-02-09T12:46:00.403Z,99.99
2019-02-09T12:47:00.363Z,99.99
2019-02-09T12:48:00.364Z,99.99
2019-02-09T12:49:00.339Z,99.99
2019-02-09T12:50:00.297Z,99.99
2019-02-09T12:51:00.269Z,99.99
2019-02-09T12:52:00.239Z,99.99
2019-02-09T12:53:00.226Z,99.99
2019-02-09T12:54:00.404Z,99.99
2019-02-09T12:55:00.183Z,99.99
2019-02-09T12:56:00.148Z,99.99